Flight Track Log - Related Links

Times and Time Zones

All times are in EDT time to prevent confusion due to time zone crossing. See the SWA407 flight status page for this flight to view local times or setup timezone preferences in your user account.

Time Position Orientation Groundspeed Altitude Reporting Facility
EDT Latitude Longitude Course Direction KTS MPH feet Rate Location/Type
Wed 12:58:07 AM 32.7500 -117.2167 296° West 155 178 2,200  Level Southern California TRACON
Wed 12:59:09 AM 32.7681 -117.2603 296° West 164 189 6,200 4,439 Climbing Los Angeles Center
Wed 01:00:10 AM 32.8050 -117.3125 310° West 191 220 11,300 3,984 Climbing Los Angeles Center
Wed 01:01:11 AM 32.8475 -117.3708 311° West 230 265 14,300 1,881 Climbing Los Angeles Center
Wed 01:02:24 AM 32.9025 -117.4456 311° West 291 335 15,500 2,642 Climbing Los Angeles Center
Wed 01:03:25 AM 32.9808 -117.5383 315° West 333 383 20,200 4,244 Climbing Los Angeles Center
Wed 01:04:27 AM 33.1075 -117.5639 350° North 381 438 24,200 3,366 Climbing Los Angeles Center
Wed 01:05:28 AM 33.2147 -117.5894 349° North 390 449 27,100 2,361 Climbing Los Angeles Center
Wed 01:06:29 AM 33.3278 -117.6150 349° North 407 468 29,000 934 Climbing Los Angeles Center
Wed 01:07:30 AM 33.4442 -117.6392 350° North 423 487 29,000  Level Los Angeles Center
Wed 01:08:31 AM 33.5600 -117.6669 349° North 425 489 29,000  Level Los Angeles Center
Wed 01:09:32 AM 33.6753 -117.6939 349° North 424 488 29,000  Level Los Angeles Center
Wed 01:10:33 AM 33.7911 -117.7200 349° North 426 490 29,000  Level Los Angeles Center
Wed 01:11:34 AM 33.9083 -117.7467 349° North 429 494 29,000  Level Los Angeles Center
Wed 01:12:36 AM 34.0517 -117.7614 355° North 446 513 29,000  Level Los Angeles Center
Wed 01:13:37 AM 34.1625 -117.6603 37° Northeast 514 592 29,000  Level Los Angeles Center
Wed 01:14:38 AM 34.2619 -117.5258 48° Northeast 534 615 29,000  Level Los Angeles Center
Wed 01:15:39 AM 34.3606 -117.3942 48° Northeast 531 611 29,000  Level Los Angeles Center
Wed 01:16:40 AM 34.4606 -117.2594 48° Northeast 521 600 29,000  Level Los Angeles Center
Wed 01:17:41 AM 34.5592 -117.1256 48° Northeast 531 611 29,000  Level Los Angeles Center
Wed 01:18:42 AM 34.6583 -116.9911 48° Northeast 537 618 29,000  Level Los Angeles Center
Wed 01:19:44 AM 34.7561 -116.8556 49° Northeast 538 619 29,000 -780 Level Los Angeles Center
Wed 01:20:45 AM 34.8564 -116.7194 48° Northeast 541 623 27,400 -1,475 Descending Los Angeles Center
Wed 01:21:46 AM 34.9383 -116.6083 48° Northeast 551 634 26,000 -1,623 Descending Los Angeles Center
Wed 01:22:47 AM 35.0614 -116.4500 46° Northeast 542 624 24,100 -896 Descending Los Angeles Center
Wed 01:24:00 AM 35.1550 -116.3325 46° Northeast 502 578 24,000 -45 Descending Los Angeles Center
Wed 01:25:01 AM 35.2872 -116.1708 45° Northeast 483 556 24,000 -1,033 Level Los Angeles Center
Wed 01:26:02 AM 35.3772 -116.0547 46° Northeast 476 548 21,900 -2,537 Descending Los Angeles Center
Wed 01:27:04 AM 35.4639 -115.9483 45° Northeast 455 524 18,800 -2,537 Descending Los Angeles Center
Wed 01:28:05 AM 35.5386 -115.8461 48° Northeast 430 495 16,700 -2,164 Descending Los Angeles Center
Wed 01:29:06 AM 35.6100 -115.7572 45° Northeast 398 458 14,400 -1,820 Descending Los Angeles Center
Wed 01:30:07 AM 35.6786 -115.6725 45° Northeast 372 428 13,000 -764 Descending Los Angeles Center
Wed 01:30:56 AM 35.7039 -115.5839 71° East 302 348 13,000 -873 Level Los Angeles Center
Wed 01:31:57 AM 35.7256 -115.4844 75° East 301 346 11,400 -1,522 Descending Los Angeles Center
Wed 01:33:10 AM 35.7639 -115.3686 68° East 304 350 9,600 -1,612 Descending Los Angeles Center
Wed 01:34:11 AM 35.8208 -115.3156 37° Northeast 264 304 7,800 -1,377 Descending Los Angeles Center
Wed 01:35:12 AM 35.8817 -115.2775 27° Northeast 261 300 6,800 -1,180 Descending Los Angeles Center
Wed 01:36:13 AM 35.9400 -115.2450 24° Northeast 245 282 5,400 -1,385 Descending Los Angeles Center
Wed 01:36:30 AM 35.9575 -115.2392 15° North 231 266 5,000 -590 Descending Los Angeles Center
Wed 01:37:14 AM 35.9925 -115.2147 29° Northeast 240 276 4,800 -991 Descending Los Angeles Center
Wed 01:38:25 AM 36.0381 -115.1914 22° Northeast 138 159 3,100 -1,237 Descending Los Angeles Center
Wed 01:38:51 AM 36.0508 -115.1814 32° Northeast 154 177 2,800 -764 Descending Los Angeles Center
Wed 01:39:20 AM 36.0667 -115.1739 21° North 128 147 2,400 -197 Descending Los Angeles Center
Wed 01:39:52 AM 36.0811 -115.1658 24° Northeast 126 145 2,600 375 Climbing Los Angeles Center
Wed 01:41:00 AM 36.0801 -115.1523 95° East  Level Estimated
Wed 01:48:00 AM 36.0801 -115.1523 270° West  Level Estimated

Login

Don't have an account? Register now (free) for customized features, flight alerts, and more!